WetterOnline ( https://www.wetteronline.de )

Wetter aktuell Kötterichen

Aktuelles Wetter: Nürburg-Barweiler (488m)

6-stündlich | Neueste Meldungen
Ortszeit Temperatur Wetter
Sa, 03.12. 13:00 -1.3° C bedeckt
Sa, 03.12. 7:00 -1.4° C bedeckt
Sa, 03.12. 1:00 -1.3° C bedeckt
Fr, 02.12. 19:00 -0.7° C leichter Schneefall
Fr, 02.12. 13:00 0.1° C leichter Schneefall
Fr, 02.12. 7:00 -0.1° C Nebel
Fr, 02.12. 1:00 1.0° C bedeckt
Do, 01.12. 19:00 1.8° C bedeckt
Ortszeit Temperatur Wetter
Sa, 03.12. 16:30 -1.0° C bedeckt
Sa, 03.12. 16:20 -1.0° C bedeckt
Sa, 03.12. 16:10 -1.0° C bedeckt
Sa, 03.12. 16:00 -0.9° C bedeckt
Sa, 03.12. 15:50 -0.9° C bedeckt
Sa, 03.12. 15:40 -0.9° C bedeckt
Sa, 03.12. 15:30 -1.0° C bedeckt
Sa, 03.12. 15:00 -0.9° C bedeckt
Sa, 03.12. 14:30 -0.9° C bedeckt
Sa, 03.12. 14:00 -1.1° C bedeckt
Sa, 03.12. 13:30 -1.2° C bedeckt
Ortszeit Relative Feuchte Sichtweite
Sa, 03.12. 13:00 95% 7 km
Sa, 03.12. 7:00 95% 8 km
Sa, 03.12. 1:00 94% 19 km
Fr, 02.12. 19:00 96% 5.0 km
Fr, 02.12. 13:00 99% 0.2 km
Fr, 02.12. 7:00 99% 0.2 km
Fr, 02.12. 1:00 96% 3.4 km
Do, 01.12. 19:00 96% 4.6 km
Ortszeit Relative Feuchte Sichtweite
Sa, 03.12. 16:30 94% 8 km
Sa, 03.12. 16:20 94% -
Sa, 03.12. 16:10 94% -
Sa, 03.12. 16:00 94% 9 km
Sa, 03.12. 15:50 94% -
Sa, 03.12. 15:40 93% -
Sa, 03.12. 15:30 92% 9 km
Sa, 03.12. 15:00 92% 10 km
Sa, 03.12. 14:30 93% 9 km
Sa, 03.12. 14:00 94% 7 km
Sa, 03.12. 13:30 95% 6 km
Ortszeit Niederschlagsmenge Niederschlagsart
Sa, 03.12. 13:00 0.0 l/m2 in 6 Std. -
Sa, 03.12. 7:00 0.1 l/m2 in 12 Std. Schnee
Sa, 03.12. 1:00 0.1 l/m2 in 6 Std. Schnee
Fr, 02.12. 19:00 1 l/m2 in 12 Std. Schnee
Fr, 02.12. 13:00 0.3 l/m2 in 6 Std. Schnee, Niederschlag
Fr, 02.12. 7:00 0.1 l/m2 in 12 Std. Sprühregen
Fr, 02.12. 1:00 0.0 l/m2 in 6 Std. -
Do, 01.12. 19:00 0.1 l/m2 in 12 Std. Sprühregen
Ortszeit Niederschlagsmenge Niederschlagsart
Sa, 03.12. 16:30 0.0 l/m2 in 30 Min -
Sa, 03.12. 16:20 keine Meldung -
Sa, 03.12. 16:10 keine Meldung -
Sa, 03.12. 16:00 0.0 l/m2 in 1 Std. -
Sa, 03.12. 15:50 keine Meldung -
Sa, 03.12. 15:40 keine Meldung -
Sa, 03.12. 15:30 0.0 l/m2 in 30 Min -
Sa, 03.12. 15:00 0.0 l/m2 in 1 Std. -
Sa, 03.12. 14:30 0.0 l/m2 in 30 Min -
Sa, 03.12. 14:00 0.0 l/m2 in 1 Std. -
Sa, 03.12. 13:30 0.0 l/m2 in 30 Min -
Ortszeit Stärke Spitze Richtung
km/h Bft. km/h Grad Sektor
Sa, 03.12. 13:00 9 2 17 50° NO
Sa, 03.12. 7:00 9 2 24 70° O
Sa, 03.12. 1:00 11 2 32 60° NO
Fr, 02.12. 19:00 11 2 28 50° NO
Fr, 02.12. 13:00 9 2 20 30° NO
Fr, 02.12. 7:00 9 2 19 20° N
Fr, 02.12. 1:00 9 2 19 30° NO
Do, 01.12. 19:00 7 2 25 10° N
Ortszeit Stärke Spitze Richtung
km/h Bft. km/h Grad Sektor
Sa, 03.12. 16:30 9 2 19 70° O
Sa, 03.12. 16:20 9 2 - 70° O
Sa, 03.12. 16:10 11 2 - 80° O
Sa, 03.12. 16:00 11 2 18 70° O
Sa, 03.12. 15:50 11 2 - 70° O
Sa, 03.12. 15:40 11 2 - 80° O
Sa, 03.12. 15:30 11 2 18 70° O
Sa, 03.12. 15:00 7 2 18 70° O
Sa, 03.12. 14:30 9 2 15 80° O
Sa, 03.12. 14:00 9 2 17 50° NO
Sa, 03.12. 13:30 9 2 15 60° NO
Ortszeit Untergrenze Bedeckung Gattung
total tief tief mittel hoch
Sa, 03.12. 13:00 90 m 8/8 8/8 - - -
Sa, 03.12. 7:00 120 m 8/8 8/8 - - -
Sa, 03.12. 1:00 150 m 8/8 8/8 - - -
Fr, 02.12. 19:00 150 m 8/8 8/8 - - -
Fr, 02.12. 13:00 <30 m 8/8 0/8 - - -
Fr, 02.12. 7:00 <30 m 8/8 0/8 - - -
Fr, 02.12. 1:00 90 m 8/8 8/8 - - -
Do, 01.12. 19:00 150 m 8/8 8/8 - - -
Ortszeit Bedeckungsgrad in Achtel und Wolkenuntergrenze
Sa, 03.12. 16:30 8(150m)
Sa, 03.12. 16:20 8(150m)
Sa, 03.12. 16:10 8
Sa, 03.12. 16:00 8(150m)
Sa, 03.12. 15:50 8(150m)
Sa, 03.12. 15:40 8
Sa, 03.12. 15:30 8(150m)
Sa, 03.12. 15:00 8(150m)
Sa, 03.12. 14:30 8(150m)
Sa, 03.12. 14:00 8(90m)
Sa, 03.12. 13:30 8(90m)
Ortszeit Luftdruck NN (hPa) Tendenz (hPa in 3 Std.)
Sa, 03.12. 13:00 1020 - 1,1
Sa, 03.12. 7:00 1021 - 0,5
Sa, 03.12. 1:00 1022 + 0,1
Fr, 02.12. 19:00 1022 + 0,5
Fr, 02.12. 13:00 1021 - 1,0
Fr, 02.12. 7:00 1023 - 1,1
Fr, 02.12. 1:00 1025 - 1,0
Do, 01.12. 19:00 1026 + 0,1
Ortszeit Luftdruck NN (hPa) Tendenz (hPa in 3 Std.)
Sa, 03.12. 16:30 1019 - 0,8
Sa, 03.12. 16:20 1019 keine Meldung
Sa, 03.12. 16:10 1018 keine Meldung
Sa, 03.12. 16:00 1018 - 1,1
Sa, 03.12. 15:50 1018 keine Meldung
Sa, 03.12. 15:40 1018 keine Meldung
Sa, 03.12. 15:30 1018 - 1,2
Sa, 03.12. 15:00 1019 - 1,2
Sa, 03.12. 14:30 1019 - 1,5
Sa, 03.12. 14:00 1019 - 1,5
Sa, 03.12. 13:30 1019 - 1,2
Ortszeit Schneehöhe (cm)
Sa, 03.12. 13:00 0
Sa, 03.12. 7:00 0
Sa, 03.12. 1:00 0
Fr, 02.12. 19:00 0
Fr, 02.12. 13:00 0
Fr, 02.12. 7:00 0
Fr, 02.12. 1:00 0
Do, 01.12. 19:00 0
Ortszeit Schneehöhe (cm)
Sa, 03.12. 16:30 0
Sa, 03.12. 16:20 0
Sa, 03.12. 16:10 0
Sa, 03.12. 16:00 0
Sa, 03.12. 15:50 0
Sa, 03.12. 15:40 0
Sa, 03.12. 15:30 0
Sa, 03.12. 15:00 0
Sa, 03.12. 14:30 0
Sa, 03.12. 14:00 0
Sa, 03.12. 13:30 0
Link zu dieser Seite / Seite empfehlen

Das Wetter in ...